createdAt,value
2023-03-16T04:46:50.186Z,438.92
2023-03-16T04:49:16.799Z,431.65
2023-03-16T04:51:43.523Z,434.13
2023-03-16T04:54:11.360Z,430.20
2023-03-16T04:56:41.356Z,434.35
2023-03-16T04:59:08.161Z,429.10
2023-03-16T05:01:34.903Z,437.20
2023-03-16T05:04:02.495Z,431.42
2023-03-16T05:06:29.760Z,425.85
2023-03-16T05:08:58.603Z,432.88
2023-03-16T05:11:25.293Z,419.75
2023-03-16T05:13:52.210Z,425.80
2023-03-16T05:16:18.911Z,415.73
2023-03-16T05:18:45.624Z,427.00
2023-03-16T05:21:12.802Z,427.73
2023-03-16T05:23:39.592Z,430.08
2023-03-16T05:26:07.640Z,424.88
2023-03-16T05:28:34.396Z,425.88
2023-03-16T05:34:37.164Z,416.70
2023-03-16T05:37:04.130Z,427.23
2023-03-16T05:39:34.328Z,431.33
2023-03-16T05:42:01.087Z,435.38
2023-03-16T05:44:28.068Z,432.75
2023-03-16T05:46:55.078Z,424.13
2023-03-16T05:49:21.834Z,418.77
2023-03-16T05:51:50.165Z,419.45
2023-03-16T05:54:17.142Z,431.85
2023-03-16T05:56:43.888Z,421.48
2023-03-16T05:59:10.661Z,429.08
2023-03-16T06:01:37.408Z,423.63
2023-03-16T06:04:05.520Z,429.38
2023-03-16T06:06:32.245Z,427.77
2023-03-16T06:08:58.994Z,425.65
2023-03-16T06:11:25.745Z,429.85
2023-03-16T06:13:52.507Z,425.30
2023-03-16T06:16:19.356Z,432.27
2023-03-16T06:18:46.073Z,448.07
2023-03-16T06:21:12.737Z,445.58
2023-03-16T06:23:39.426Z,440.40
2023-03-16T06:26:06.131Z,438.60
2023-03-16T06:28:32.798Z,444.73
2023-03-16T06:30:59.568Z,439.17
2023-03-16T06:33:26.386Z,451.25
2023-03-16T06:35:53.137Z,449.52
2023-03-16T06:38:20.025Z,456.92
2023-03-16T06:40:51.493Z,452.10
2023-03-16T06:43:18.140Z,457.77
2023-03-16T06:45:45.199Z,457.27
2023-03-16T06:48:11.940Z,462.17
2023-03-16T06:50:38.615Z,473.15
2023-03-16T06:53:05.357Z,472.70
2023-03-16T06:55:31.970Z,487.92
2023-03-16T06:57:58.770Z,496.00
2023-03-16T07:00:26.006Z,501.52
2023-03-16T07:02:53.097Z,498.63
2023-03-16T07:05:19.848Z,513.75
2023-03-16T07:07:46.504Z,514.38
2023-03-16T07:10:15.604Z,516.53
2023-03-16T07:12:42.420Z,522.15
2023-03-16T07:15:10.826Z,532.90
2023-03-16T07:17:37.785Z,538.35
2023-03-16T07:20:10.676Z,550.50
2023-03-16T07:22:41.665Z,564.60
2023-03-16T07:25:08.951Z,565.05
2023-03-16T07:27:35.645Z,589.75
2023-03-16T07:30:04.656Z,588.00
2023-03-16T07:32:32.594Z,590.03
2023-03-16T07:34:59.570Z,596.63
2023-03-16T07:37:26.783Z,607.83
2023-03-16T07:39:53.575Z,616.70
2023-03-16T07:42:20.363Z,621.70
2023-03-16T07:44:46.971Z,638.70
2023-03-16T07:47:14.060Z,642.53
2023-03-16T07:49:41.700Z,653.63
2023-03-16T07:52:08.575Z,662.67
2023-03-16T07:54:35.397Z,665.95
2023-03-16T07:57:02.047Z,688.65
2023-03-16T07:59:28.763Z,721.70
2023-03-16T08:01:55.421Z,741.65
2023-03-16T08:04:22.347Z,754.95
2023-03-16T08:06:49.081Z,786.33
2023-03-16T08:09:15.836Z,820.90
2023-03-16T08:11:42.775Z,851.22
2023-03-16T08:14:09.547Z,879.13
2023-03-16T08:16:36.749Z,887.65
2023-03-16T08:19:03.717Z,914.37
2023-03-16T08:21:30.379Z,919.95
2023-03-16T08:23:57.280Z,948.28
2023-03-16T08:26:24.464Z,952.70
2023-03-16T08:28:52.311Z,956.72
2023-03-16T08:31:21.156Z,966.63
2023-03-16T08:33:48.412Z,977.72
2023-03-16T08:36:17.765Z,999.80
2023-03-16T08:38:59.867Z,999.90
2023-03-16T08:41:31.157Z,999.90
2023-03-16T08:43:59.214Z,999.90
2023-03-16T08:46:26.557Z,999.90
2023-03-16T08:48:55.712Z,999.90
2023-03-16T08:51:22.634Z,999.90
2023-03-16T08:53:49.282Z,999.90
2023-03-16T08:56:16.007Z,999.90
2023-03-16T08:58:46.041Z,999.90
2023-03-16T09:01:15.489Z,999.90
2023-03-16T09:03:42.679Z,999.90
2023-03-16T09:06:13.275Z,999.90
2023-03-16T09:08:41.087Z,999.90
2023-03-16T09:11:10.237Z,999.90
2023-03-16T09:13:38.692Z,999.90
2023-03-16T09:16:07.174Z,999.90
2023-03-16T09:18:35.447Z,999.90
2023-03-16T09:21:07.822Z,999.90
2023-03-16T09:23:37.510Z,999.90
2023-03-16T09:26:07.326Z,999.90
2023-03-16T09:28:36.048Z,999.90
2023-03-16T09:31:05.610Z,999.90
2023-03-16T09:33:33.779Z,999.90
2023-03-16T09:36:01.630Z,999.90
2023-03-16T09:38:29.102Z,999.90
2023-03-16T09:41:24.946Z,999.90
2023-03-16T09:44:04.797Z,999.90
2023-03-16T09:46:41.633Z,999.90
2023-03-16T09:49:15.901Z,999.90
2023-03-16T09:51:52.199Z,999.90
2023-03-16T09:54:39.080Z,999.90
2023-03-16T09:57:21.358Z,999.90
2023-03-16T09:59:48.146Z,999.90
2023-03-16T10:02:35.623Z,999.90
2023-03-16T10:05:12.261Z,999.90
2023-03-16T10:07:51.057Z,999.90
2023-03-16T10:10:40.996Z,999.90
2023-03-16T10:13:23.967Z,999.90
2023-03-16T10:15:53.376Z,999.90
2023-03-16T10:18:29.384Z,999.90
2023-03-16T10:20:58.469Z,999.90
2023-03-16T10:23:26.001Z,999.90
2023-03-16T10:25:55.101Z,999.90
2023-03-16T10:28:27.742Z,999.90
2023-03-16T10:30:58.056Z,999.90
2023-03-16T10:33:33.617Z,999.90
2023-03-16T10:36:05.514Z,999.90
2023-03-16T10:38:40.738Z,999.90
2023-03-16T10:41:22.624Z,999.90
2023-03-16T10:44:10.028Z,999.90
2023-03-16T10:46:41.164Z,999.90
2023-03-16T10:49:20.084Z,999.90
2023-03-16T10:51:46.906Z,999.90
2023-03-16T10:54:25.573Z,999.90
2023-03-16T10:56:52.305Z,999.90
2023-03-16T10:59:34.114Z,999.90
2023-03-16T11:02:05.311Z,999.90
2023-03-16T11:04:33.779Z,999.90
2023-03-16T11:07:00.564Z,999.90
2023-03-16T11:09:33.382Z,999.90
2023-03-16T11:12:11.974Z,999.90
2023-03-16T11:14:42.589Z,999.90
2023-03-16T11:17:33.960Z,999.90
2023-03-16T11:20:17.509Z,999.90
2023-03-16T11:22:47.145Z,999.90
2023-03-16T11:25:30.504Z,999.90
2023-03-16T11:28:12.068Z,999.90
2023-03-16T11:30:41.199Z,999.90
2023-03-16T11:33:15.320Z,999.90
2023-03-16T11:35:59.318Z,999.90
2023-03-16T11:38:48.509Z,999.90
2023-03-16T11:41:40.634Z,999.90
2023-03-16T11:44:27.658Z,999.90
2023-03-16T11:47:05.501Z,999.90
2023-03-16T11:50:02.266Z,999.90
2023-03-16T11:52:38.566Z,999.90
2023-03-16T11:55:28.728Z,999.90
2023-03-16T11:58:31.611Z,999.90
2023-03-16T12:02:00.793Z,999.90
2023-03-16T12:04:55.368Z,999.90
2023-03-16T12:07:46.451Z,999.90
2023-03-16T12:10:34.402Z,999.90
2023-03-16T12:13:38.864Z,999.90
2023-03-16T12:16:15.833Z,999.90
2023-03-16T12:18:50.384Z,999.90
2023-03-16T12:21:26.867Z,999.90
2023-03-16T12:24:06.815Z,999.90
2023-03-16T12:26:41.960Z,999.90
2023-03-16T12:29:31.593Z,999.90
2023-03-16T12:32:21.281Z,999.90
2023-03-16T12:35:02.848Z,999.90
2023-03-16T12:37:56.727Z,999.90
2023-03-16T12:40:46.363Z,999.90
2023-03-16T12:43:42.761Z,999.90
2023-03-16T12:46:22.295Z,999.90
2023-03-16T12:49:00.305Z,999.90
2023-03-16T12:51:38.856Z,999.90
2023-03-16T12:54:07.598Z,999.90
2023-03-16T12:56:46.147Z,999.90
2023-03-16T12:59:19.655Z,999.90
2023-03-16T13:01:50.539Z,999.90
2023-03-16T13:04:31.090Z,999.90
2023-03-16T13:07:17.313Z,999.90
2023-03-16T13:09:50.806Z,999.90
2023-03-16T13:12:30.983Z,999.90
2023-03-16T13:14:57.816Z,999.90
2023-03-16T13:17:27.875Z,999.90
2023-03-16T13:20:30.714Z,999.90
2023-03-16T13:23:23.048Z,999.90
2023-03-16T13:26:14.650Z,999.90
2023-03-16T13:28:43.251Z,999.90
2023-03-16T13:31:38.933Z,999.90
2023-03-16T13:34:07.574Z,999.90
2023-03-16T13:36:36.420Z,999.90
2023-03-16T13:39:05.478Z,999.90
2023-03-16T13:41:32.244Z,999.90
2023-03-16T13:43:58.984Z,999.90
2023-03-16T13:46:30.094Z,999.90
2023-03-16T13:49:03.053Z,999.90
2023-03-16T13:51:34.156Z,999.90
2023-03-16T13:54:06.342Z,999.90
2023-03-16T13:56:34.068Z,999.90
2023-03-16T13:59:01.609Z,999.90
2023-03-16T14:01:31.100Z,990.50
2023-03-16T14:04:08.625Z,979.10
2023-03-16T14:06:36.687Z,972.33
2023-03-16T14:09:08.107Z,976.78
2023-03-16T14:11:34.965Z,983.55
2023-03-16T14:14:13.064Z,979.92
2023-03-16T14:16:40.102Z,981.25
2023-03-16T14:19:14.826Z,979.85
2023-03-16T14:21:45.611Z,983.45
2023-03-16T14:24:36.992Z,985.42
2023-03-16T14:27:42.548Z,978.88
2023-03-16T14:30:24.447Z,984.03
2023-03-16T14:33:06.617Z,988.67
2023-03-16T14:35:41.356Z,991.20
2023-03-16T14:38:36.141Z,988.42
2023-03-16T14:41:10.217Z,994.88
2023-03-16T14:43:48.108Z,997.03
2023-03-16T14:46:24.088Z,995.10
2023-03-16T14:48:50.777Z,999.90
2023-03-16T14:51:17.676Z,999.90
2023-03-16T14:53:44.781Z,999.90
2023-03-16T14:56:13.594Z,994.40
2023-03-16T14:58:41.202Z,994.08
2023-03-16T15:01:14.247Z,999.57
2023-03-16T15:03:42.791Z,990.72
2023-03-16T15:06:09.917Z,995.03
2023-03-16T15:08:44.391Z,999.90
2023-03-16T15:11:11.879Z,999.83
2023-03-16T15:13:41.874Z,999.90
2023-03-16T15:16:13.982Z,999.90
2023-03-16T15:18:41.749Z,999.90
2023-03-16T15:21:31.432Z,999.90
2023-03-16T15:24:01.062Z,996.15
2023-03-16T15:26:29.628Z,983.22
2023-03-16T15:28:57.379Z,978.05
2023-03-16T15:31:24.284Z,981.63
2023-03-16T15:33:51.216Z,974.67
2023-03-16T15:36:19.980Z,969.00
2023-03-16T15:38:50.298Z,966.90
2023-03-16T15:41:17.465Z,961.07
2023-03-16T15:43:45.692Z,967.97
2023-03-16T15:46:12.554Z,963.05
2023-03-16T15:48:39.402Z,960.50
2023-03-16T15:51:28.265Z,952.90
2023-03-16T15:53:59.475Z,955.97
2023-03-16T15:56:30.277Z,949.08
2023-03-16T15:59:03.838Z,947.10
2023-03-16T16:01:38.339Z,940.10
2023-03-16T16:04:12.356Z,937.40
2023-03-16T16:06:39.265Z,939.67
2023-03-16T16:09:06.405Z,931.78
2023-03-16T16:11:33.294Z,938.63
2023-03-16T16:14:00.238Z,930.45
2023-03-16T16:16:29.063Z,927.45
2023-03-16T16:18:56.842Z,927.40
2023-03-16T16:21:28.065Z,929.90
2023-03-16T16:23:55.138Z,930.88
2023-03-16T16:26:49.912Z,925.55
2023-03-16T16:29:22.937Z,921.70
2023-03-16T16:31:51.592Z,922.20
2023-03-16T16:34:27.141Z,916.13
2023-03-16T16:36:56.165Z,923.75
2023-03-16T16:39:23.934Z,915.05
2023-03-16T16:41:52.212Z,906.85
2023-03-16T16:44:25.048Z,895.83
2023-03-16T16:46:52.824Z,895.25
2023-03-16T16:49:23.750Z,889.90
2023-03-16T16:51:52.458Z,884.67
2023-03-16T16:54:24.461Z,892.85
2023-03-16T16:56:54.559Z,879.85
2023-03-16T16:59:28.896Z,879.22
2023-03-16T17:01:56.544Z,873.33
2023-03-16T17:04:28.639Z,867.92
2023-03-16T17:07:01.931Z,877.07
2023-03-16T17:09:30.062Z,863.38
2023-03-16T17:12:00.935Z,853.83
2023-03-16T17:14:28.217Z,857.55
2023-03-16T17:16:55.377Z,845.83
2023-03-16T17:19:28.039Z,844.60
2023-03-16T17:21:57.514Z,827.67
2023-03-16T17:24:24.860Z,837.40
2023-03-16T17:26:55.108Z,832.00
2023-03-16T17:29:28.981Z,825.80
2023-03-16T17:31:56.103Z,824.20
2023-03-16T17:34:28.857Z,829.70
2023-03-16T17:36:55.846Z,823.15
2023-03-16T17:39:28.901Z,812.88
2023-03-16T17:41:58.730Z,810.45
2023-03-16T17:44:31.186Z,813.45
2023-03-16T17:46:57.872Z,810.35
2023-03-16T17:49:28.309Z,806.78
2023-03-16T17:51:55.683Z,793.47
2023-03-16T17:54:22.969Z,792.72
2023-03-16T17:56:52.092Z,799.15
2023-03-16T17:59:21.099Z,789.75
2023-03-16T18:01:48.348Z,795.50
2023-03-16T18:04:26.031Z,786.20
2023-03-16T18:06:53.454Z,786.27
2023-03-16T18:09:21.037Z,775.90
2023-03-16T18:11:50.971Z,771.70
2023-03-16T18:14:20.618Z,764.53
2023-03-16T18:16:47.348Z,766.30
2023-03-16T18:19:32.499Z,767.53
2023-03-16T18:21:59.188Z,765.28
2023-03-16T18:24:28.120Z,759.58
2023-03-16T18:26:55.420Z,759.33
2023-03-16T18:29:22.424Z,756.58
2023-03-16T18:31:49.860Z,755.22
2023-03-16T18:34:23.759Z,758.20
2023-03-16T18:36:53.047Z,753.40
2023-03-16T18:39:22.108Z,748.10
2023-03-16T18:41:48.884Z,746.77
2023-03-16T18:44:21.795Z,744.80
2023-03-16T18:46:49.651Z,734.72
2023-03-16T18:49:22.794Z,750.00
2023-03-16T18:51:52.273Z,742.60
2023-03-16T18:54:25.702Z,748.88
2023-03-16T18:56:53.842Z,738.55
2023-03-16T18:59:21.145Z,748.50
2023-03-16T19:01:48.499Z,739.73
2023-03-16T19:04:24.492Z,740.38
2023-03-16T19:06:53.908Z,738.45
2023-03-16T19:09:27.646Z,730.85
2023-03-16T19:11:54.644Z,735.63
2023-03-16T19:14:31.938Z,717.08
2023-03-16T19:16:59.198Z,713.85
2023-03-16T19:19:25.976Z,712.00
2023-03-16T19:22:09.691Z,707.67
2023-03-16T19:24:46.236Z,719.25
2023-03-16T19:27:38.305Z,712.42
2023-03-16T19:30:06.340Z,707.65
2023-03-16T19:32:33.151Z,710.60
2023-03-16T19:34:59.868Z,713.20
2023-03-16T19:37:29.931Z,714.63
2023-03-16T19:39:56.626Z,719.95
2023-03-16T19:42:30.813Z,719.63
2023-03-16T19:44:57.604Z,713.17
2023-03-16T19:47:33.615Z,703.40
2023-03-16T19:50:00.450Z,711.13
2023-03-16T19:52:28.227Z,693.65
2023-03-16T19:54:54.940Z,692.25
2023-03-16T19:57:21.739Z,690.67
2023-03-16T19:59:53.117Z,691.80
2023-03-16T20:02:40.426Z,684.80
2023-03-16T20:05:08.243Z,694.63
2023-03-16T20:07:38.030Z,685.30
2023-03-16T20:10:06.481Z,681.55
2023-03-16T20:12:33.712Z,688.05
2023-03-16T20:15:00.755Z,684.78
2023-03-16T20:17:29.561Z,678.10
2023-03-16T20:19:57.150Z,688.42
2023-03-16T20:22:28.604Z,680.20
2023-03-16T20:24:55.857Z,674.67
2023-03-16T20:27:24.202Z,666.75
2023-03-16T20:29:52.075Z,680.50
2023-03-16T20:32:21.819Z,674.40
2023-03-16T20:34:50.327Z,683.03
2023-03-16T20:37:25.056Z,672.00
2023-03-16T20:39:53.803Z,677.35
2023-03-16T20:42:25.845Z,677.90
2023-03-16T20:44:52.704Z,670.53
2023-03-16T20:47:22.807Z,675.00
2023-03-16T20:49:53.494Z,663.10
2023-03-16T20:52:23.278Z,658.17
2023-03-16T20:54:50.979Z,666.33
2023-03-16T20:57:22.574Z,658.92
2023-03-16T20:59:51.563Z,669.45
2023-03-16T21:02:28.631Z,663.50
2023-03-16T21:04:59.416Z,662.80
2023-03-16T21:07:27.202Z,657.30
2023-03-16T21:09:54.010Z,668.33
2023-03-16T21:12:33.339Z,667.00
2023-03-16T21:15:02.500Z,657.42
2023-03-16T21:17:34.887Z,657.00
2023-03-16T21:20:01.642Z,657.20
2023-03-16T21:22:32.079Z,663.03
2023-03-16T21:24:58.920Z,667.35
2023-03-16T21:27:28.713Z,658.50
2023-03-16T21:29:58.499Z,660.92
2023-03-16T21:32:27.608Z,658.85
2023-03-16T21:34:56.167Z,650.67
2023-03-16T21:37:27.929Z,653.38
2023-03-16T21:39:54.642Z,650.55
2023-03-16T21:42:21.461Z,650.65
2023-03-16T21:44:48.217Z,648.75
2023-03-16T21:47:28.412Z,652.50
2023-03-16T21:49:56.010Z,648.58
2023-03-16T21:52:30.140Z,646.97
2023-03-16T21:54:58.363Z,649.13
2023-03-16T21:57:25.088Z,643.13
2023-03-16T21:59:51.900Z,650.58
2023-03-16T22:02:23.066Z,637.53
2023-03-16T22:04:51.759Z,634.53
2023-03-16T22:07:19.450Z,633.67
2023-03-16T22:09:46.250Z,639.58
2023-03-16T22:12:14.068Z,638.72
2023-03-16T22:14:42.628Z,639.25
2023-03-16T22:17:22.075Z,635.85
2023-03-16T22:19:48.895Z,632.42
2023-03-16T22:22:17.321Z,640.92
2023-03-16T22:24:44.101Z,633.13
2023-03-16T22:27:20.616Z,631.63
2023-03-16T22:29:49.831Z,629.33
2023-03-16T22:32:20.738Z,625.72
2023-03-16T22:34:57.036Z,626.67
2023-03-16T22:37:29.032Z,624.33
2023-03-16T22:39:58.379Z,632.53
2023-03-16T22:42:33.637Z,628.85
2023-03-16T22:45:01.334Z,618.85
2023-03-16T22:47:32.500Z,613.47
2023-03-16T22:49:59.426Z,617.40
2023-03-16T22:52:30.474Z,606.97
2023-03-16T22:54:59.628Z,611.75
2023-03-16T22:57:26.477Z,610.10
2023-03-16T22:59:53.234Z,604.20
2023-03-16T23:02:24.147Z,614.40
2023-03-16T23:04:50.932Z,602.45
2023-03-16T23:07:18.102Z,604.65
2023-03-16T23:09:44.782Z,605.85
2023-03-16T23:12:17.224Z,605.03
2023-03-16T23:14:44.209Z,604.43
2023-03-16T23:17:22.244Z,605.63
2023-03-16T23:19:49.205Z,611.38
2023-03-16T23:22:16.289Z,600.33
2023-03-16T23:24:43.156Z,610.33
2023-03-16T23:27:22.199Z,604.63
2023-03-16T23:29:49.336Z,597.50
2023-03-16T23:32:19.322Z,595.03
2023-03-16T23:34:46.062Z,599.58
2023-03-16T23:37:12.796Z,595.28
2023-03-16T23:39:39.866Z,591.92
2023-03-16T23:42:07.166Z,588.50
2023-03-16T23:44:33.972Z,582.93
2023-03-16T23:47:01.297Z,567.13
2023-03-16T23:49:32.595Z,587.55
2023-03-16T23:52:01.388Z,584.08
2023-03-16T23:54:30.828Z,582.90
2023-03-16T23:56:57.810Z,566.80
2023-03-16T23:59:25.690Z,581.22
